createdAt,value
2022-11-16T00:01:57.403Z,100415.03
2022-11-16T00:04:25.641Z,100407.91
2022-11-16T00:06:53.856Z,100411.53
2022-11-16T00:09:27.019Z,100412.50
2022-11-16T00:11:58.059Z,100406.38
2022-11-16T00:14:28.926Z,100413.66
2022-11-16T00:16:57.706Z,100415.38
2022-11-16T00:19:26.676Z,100414.53
2022-11-16T00:21:55.389Z,100418.06
2022-11-16T00:24:24.444Z,100423.53
2022-11-16T00:26:54.660Z,100411.84
2022-11-16T00:29:25.250Z,100410.88
2022-11-16T00:31:54.172Z,100411.84
2022-11-16T00:34:23.169Z,100406.38
2022-11-16T00:36:51.427Z,100399.38
2022-11-16T00:39:19.958Z,100403.00
2022-11-16T00:41:49.045Z,100398.50
2022-11-16T00:44:17.939Z,100394.09
2022-11-16T00:46:47.751Z,100394.94
2022-11-16T00:49:16.166Z,100388.72
2022-11-16T00:51:44.352Z,100394.09
2022-11-16T00:54:12.528Z,100387.75
2022-11-16T00:56:40.758Z,100387.84
2022-11-16T00:59:09.118Z,100389.59
2022-11-16T01:01:37.258Z,100377.88
2022-11-16T01:04:06.926Z,100381.44
2022-11-16T01:06:35.062Z,100376.84
2022-11-16T01:09:03.293Z,100375.00
2022-11-16T01:11:48.910Z,100364.16
2022-11-16T01:14:17.346Z,100363.22
2022-11-16T01:16:45.453Z,100368.59
2022-11-16T01:19:14.971Z,100361.38
2022-11-16T01:21:43.117Z,100355.97
2022-11-16T01:24:11.230Z,100367.47
2022-11-16T01:26:39.373Z,100354.03
2022-11-16T01:29:07.506Z,100352.31
2022-11-16T01:31:35.748Z,100372.06
2022-11-16T01:34:04.083Z,100366.69
2022-11-16T01:36:35.474Z,100367.47
2022-11-16T01:39:04.314Z,100354.03
2022-11-16T01:41:32.475Z,100362.97
2022-11-16T01:44:02.533Z,100363.81
2022-11-16T01:46:31.141Z,100348.66
2022-11-16T01:49:03.282Z,100360.38
2022-11-16T01:51:33.513Z,100340.72
2022-11-16T01:54:02.770Z,100338.09
2022-11-16T01:56:32.958Z,100337.22
2022-11-16T01:59:01.130Z,100331.94
2022-11-16T02:01:29.318Z,100331.19
2022-11-16T02:03:57.565Z,100336.56
2022-11-16T02:06:39.145Z,100337.59
2022-11-16T02:09:37.439Z,100327.81
2022-11-16T02:12:17.376Z,100342.97
2022-11-16T02:14:59.533Z,100331.38
2022-11-16T02:17:35.498Z,100318.91
2022-11-16T02:20:44.492Z,100321.59
2022-11-16T02:23:47.471Z,100328.88
2022-11-16T02:26:27.052Z,100323.63
2022-11-16T02:29:15.208Z,100320.13
2022-11-16T02:31:49.029Z,100320.22
2022-11-16T02:34:18.221Z,100315.81
2022-11-16T02:36:49.884Z,100312.34
2022-11-16T02:39:21.079Z,100312.47
2022-11-16T02:41:50.933Z,100310.72
2022-11-16T02:44:22.723Z,100310.81
2022-11-16T02:46:57.293Z,100309.09
2022-11-16T02:49:26.828Z,100303.91
2022-11-16T02:51:55.614Z,100297.66
2022-11-16T02:54:24.995Z,100307.53
2022-11-16T02:56:56.718Z,100309.44
2022-11-16T02:59:31.231Z,100305.03
2022-11-16T03:02:04.026Z,100306.97
2022-11-16T03:04:37.066Z,100300.72
2022-11-16T03:07:07.260Z,100306.97
2022-11-16T03:09:37.813Z,100298.91
2022-11-16T03:12:08.998Z,100292.78
2022-11-16T03:14:43.104Z,100290.19
2022-11-16T03:17:15.252Z,100293.81
2022-11-16T03:19:45.605Z,100293.88
2022-11-16T03:22:16.852Z,100287.94
2022-11-16T03:24:45.226Z,100288.81
2022-11-16T03:27:20.543Z,100284.41
2022-11-16T03:29:57.695Z,100279.03
2022-11-16T03:32:29.533Z,100270.97
2022-11-16T03:35:00.862Z,100272.81
2022-11-16T03:37:30.771Z,100273.66
2022-11-16T03:40:01.191Z,100281.63
2022-11-16T03:42:29.729Z,100292.44
2022-11-16T03:44:59.796Z,100272.81
2022-11-16T03:47:27.945Z,100280.94
2022-11-16T03:49:56.070Z,100273.75
2022-11-16T03:52:24.376Z,100278.25
2022-11-16T03:54:52.533Z,100285.44
2022-11-16T03:57:20.670Z,100281.03
2022-11-16T03:59:48.798Z,100291.78
2022-11-16T04:02:18.273Z,100288.22
2022-11-16T04:05:03.906Z,100279.31
2022-11-16T04:07:49.510Z,100290.06
2022-11-16T04:10:35.145Z,100284.59
2022-11-16T04:13:36.310Z,100287.19
2022-11-16T04:16:21.841Z,100291.69
2022-11-16T04:19:08.864Z,100291.69
2022-11-16T04:21:56.975Z,100293.50
2022-11-16T04:24:27.992Z,100289.09
2022-11-16T04:27:16.582Z,100289.97
2022-11-16T04:29:44.882Z,100293.50
2022-11-16T04:32:30.764Z,100284.59
2022-11-16T04:35:18.026Z,100297.06
2022-11-16T04:37:53.353Z,100292.53
2022-11-16T04:40:23.693Z,100302.31
2022-11-16T04:42:53.071Z,100305.78
2022-11-16T04:45:38.996Z,100303.00
2022-11-16T04:48:07.772Z,100305.78
2022-11-16T04:50:37.720Z,100303.94
2022-11-16T04:53:06.475Z,100315.53
2022-11-16T04:55:35.078Z,100308.47
2022-11-16T04:58:03.509Z,100300.50
2022-11-16T05:00:31.954Z,100312.09
2022-11-16T05:03:01.778Z,100309.41
2022-11-16T05:05:30.216Z,100306.81
2022-11-16T05:07:59.752Z,100304.03
2022-11-16T05:10:27.932Z,100300.50
2022-11-16T05:12:56.033Z,100296.97
2022-11-16T05:15:24.224Z,100286.22
2022-11-16T05:17:54.864Z,100281.81
2022-11-16T05:20:40.491Z,100288.13
2022-11-16T05:23:30.647Z,100278.38
2022-11-16T05:25:58.760Z,100276.53
2022-11-16T05:28:26.863Z,100273.97
2022-11-16T05:30:54.994Z,100275.78
2022-11-16T05:33:23.176Z,100279.41
2022-11-16T05:35:51.718Z,100286.66
2022-11-16T05:38:21.272Z,100283.13
2022-11-16T05:40:49.413Z,100286.75
2022-11-16T05:43:17.547Z,100282.34
2022-11-16T05:45:45.673Z,100276.31
2022-11-16T05:48:13.817Z,100285.31
2022-11-16T05:50:43.232Z,100284.44
2022-11-16T05:53:11.676Z,100286.28
2022-11-16T05:55:41.150Z,100288.97
2022-11-16T05:58:09.271Z,100291.53
2022-11-16T06:00:37.401Z,100305.91
2022-11-16T06:03:05.674Z,100298.81
2022-11-16T06:05:40.246Z,100302.53
2022-11-16T06:08:09.034Z,100316.84
2022-11-16T06:10:37.904Z,100306.09
2022-11-16T06:13:07.390Z,100300.78
2022-11-16T06:15:38.254Z,100292.75
2022-11-16T06:18:06.919Z,100286.53
2022-11-16T06:20:35.603Z,100295.53
2022-11-16T06:23:03.749Z,100293.72
2022-11-16T06:25:31.907Z,100291.03
2022-11-16T06:28:02.962Z,100294.66
2022-11-16T06:30:34.945Z,100293.81
2022-11-16T06:33:03.090Z,100300.13
2022-11-16T06:35:31.219Z,100295.63
2022-11-16T06:37:59.856Z,100293.81
2022-11-16T06:40:27.964Z,100292.06
2022-11-16T06:42:57.172Z,100300.13
2022-11-16T06:45:25.271Z,100287.66
2022-11-16T06:47:54.821Z,100276.94
2022-11-16T06:50:22.956Z,100282.41
2022-11-16T06:52:51.394Z,100282.31
2022-11-16T06:55:19.602Z,100284.97
2022-11-16T06:57:47.769Z,100286.72
2022-11-16T07:00:16.963Z,100287.56
2022-11-16T07:02:45.071Z,100296.56
2022-11-16T07:05:14.665Z,100283.25
2022-11-16T07:07:42.886Z,100287.66
2022-11-16T07:10:11.558Z,100304.63
2022-11-16T07:12:42.463Z,100297.44
2022-11-16T07:15:11.466Z,100299.16
2022-11-16T07:17:40.022Z,100310.66
2022-11-16T07:20:08.844Z,100296.25
2022-11-16T07:22:38.527Z,100295.38
2022-11-16T07:25:07.889Z,100300.75
2022-11-16T07:27:36.043Z,100291.72
2022-11-16T07:30:04.644Z,100300.75
2022-11-16T07:32:32.804Z,100296.13
2022-11-16T07:35:00.932Z,100296.13
2022-11-16T07:37:29.122Z,100297.88
2022-11-16T07:39:58.604Z,100293.28
2022-11-16T07:42:26.768Z,100295.00
2022-11-16T07:44:54.885Z,100312.91
2022-11-16T07:47:23.056Z,100295.00
2022-11-16T07:49:51.230Z,100297.69
2022-11-16T07:52:19.381Z,100296.72
2022-11-16T07:54:47.510Z,100300.38
2022-11-16T07:57:17.037Z,100302.94
2022-11-16T07:59:45.167Z,100298.25
2022-11-16T08:02:13.361Z,100298.09
2022-11-16T08:04:41.525Z,100294.47
2022-11-16T08:07:09.699Z,100294.28
2022-11-16T08:09:39.495Z,100296.75
2022-11-16T08:12:07.912Z,100290.44
2022-11-16T08:14:37.440Z,100305.50
2022-11-16T08:17:07.258Z,100288.38
2022-11-16T08:19:36.582Z,100293.44
2022-11-16T08:22:04.906Z,100290.75
2022-11-16T08:24:33.161Z,100286.25
2022-11-16T08:27:01.321Z,100290.66
2022-11-16T08:29:29.458Z,100291.44
2022-11-16T08:31:59.062Z,100290.47
2022-11-16T08:34:27.233Z,100290.31
2022-11-16T08:36:55.370Z,100290.97
2022-11-16T08:39:23.528Z,100278.41
2022-11-16T08:41:51.951Z,100287.34
2022-11-16T08:44:20.109Z,100287.13
2022-11-16T08:46:48.239Z,100282.47
2022-11-16T08:49:17.853Z,100282.28
2022-11-16T08:51:45.981Z,100276.72
2022-11-16T08:54:14.145Z,100286.31
2022-11-16T08:56:42.336Z,100274.59
2022-11-16T08:59:11.208Z,100274.53
2022-11-16T09:01:39.383Z,100271.66
2022-11-16T09:04:07.570Z,100276.81
2022-11-16T09:06:37.446Z,100268.66
2022-11-16T09:09:06.027Z,100278.47
2022-11-16T09:11:34.290Z,100281.94
2022-11-16T09:14:02.422Z,100284.53
2022-11-16T09:16:30.670Z,100284.44
2022-11-16T09:18:58.807Z,100294.34
2022-11-16T09:21:28.279Z,100287.03
2022-11-16T09:23:58.748Z,100296.72
2022-11-16T09:26:27.247Z,100303.72
2022-11-16T09:28:58.020Z,100297.28
2022-11-16T09:31:27.411Z,100297.13
2022-11-16T09:33:58.154Z,100300.56
2022-11-16T09:36:27.227Z,100304.03
2022-11-16T09:39:29.693Z,100318.97
2022-11-16T09:42:02.485Z,100317.16
2022-11-16T09:44:53.792Z,100312.63
2022-11-16T09:47:25.047Z,100312.63
2022-11-16T09:49:58.204Z,100317.91
2022-11-16T09:52:34.285Z,100318.78
2022-11-16T09:55:04.795Z,100313.41
2022-11-16T09:57:37.474Z,100327.03
2022-11-16T10:00:14.092Z,100316.69
2022-11-16T10:02:45.300Z,100324.91
2022-11-16T10:05:19.191Z,100321.66
2022-11-16T10:07:49.507Z,100330.69
2022-11-16T10:10:19.192Z,100329.81
2022-11-16T10:12:52.950Z,100330.97
2022-11-16T10:15:32.707Z,100327.59
2022-11-16T10:18:08.136Z,100323.19
2022-11-16T10:20:48.848Z,100339.28
2022-11-16T10:23:23.758Z,100317.81
2022-11-16T10:25:54.481Z,100333.13
2022-11-16T10:28:42.206Z,100336.72
2022-11-16T10:31:18.064Z,100339.38
2022-11-16T10:33:48.084Z,100331.34
2022-11-16T10:36:17.433Z,100347.34
2022-11-16T10:38:46.494Z,100333.91
2022-11-16T10:41:19.740Z,100333.91
2022-11-16T10:43:49.535Z,100333.81
2022-11-16T10:46:21.881Z,100333.81
2022-11-16T10:48:58.821Z,100339.13
2022-11-16T10:51:26.969Z,100336.44
2022-11-16T10:53:56.052Z,100324.03
2022-11-16T10:56:27.121Z,100325.97
2022-11-16T10:59:01.135Z,100326.81
2022-11-16T11:01:36.394Z,100319.69
2022-11-16T11:04:20.753Z,100328.91
2022-11-16T11:06:51.404Z,100324.50
2022-11-16T11:09:28.066Z,100321.09
2022-11-16T11:12:18.168Z,100331.00
2022-11-16T11:15:27.576Z,100331.28
2022-11-16T11:18:26.446Z,100330.41
2022-11-16T11:21:07.896Z,100329.34
2022-11-16T11:23:43.333Z,100335.50
2022-11-16T11:26:35.914Z,100323.91
2022-11-16T11:29:10.759Z,100339.13
2022-11-16T11:31:44.177Z,100331.19
2022-11-16T11:34:18.944Z,100337.31
2022-11-16T11:36:49.736Z,100342.69
2022-11-16T11:39:32.718Z,100336.34
2022-11-16T11:42:21.620Z,100336.34
2022-11-16T11:44:57.098Z,100342.59
2022-11-16T11:48:00.368Z,100336.34
2022-11-16T11:50:39.938Z,100331.00
2022-11-16T11:53:12.719Z,100332.81
2022-11-16T11:55:40.917Z,100331.00
2022-11-16T11:58:16.365Z,100336.34
2022-11-16T12:00:54.186Z,100325.72
2022-11-16T12:04:00.868Z,100331.19
2022-11-16T12:06:38.698Z,100331.19
2022-11-16T12:09:32.635Z,100335.69
2022-11-16T12:12:15.649Z,100329.47
2022-11-16T12:14:59.972Z,100331.38
2022-11-16T12:17:35.934Z,100333.28
2022-11-16T12:20:34.277Z,100343.34
2022-11-16T12:23:15.984Z,100340.59
2022-11-16T12:25:51.046Z,100349.50
2022-11-16T12:28:31.154Z,100349.59
2022-11-16T12:31:10.182Z,100345.16
2022-11-16T12:33:46.126Z,100341.59
2022-11-16T12:36:22.420Z,100336.16
2022-11-16T12:39:00.152Z,100336.34
2022-11-16T12:42:05.357Z,100336.34
2022-11-16T12:44:43.969Z,100337.38
2022-11-16T12:47:22.732Z,100337.47
2022-11-16T12:50:21.622Z,100336.63
2022-11-16T12:53:03.811Z,100337.66
2022-11-16T12:55:39.712Z,100342.09
2022-11-16T12:58:15.518Z,100338.53
2022-11-16T13:00:56.691Z,100335.94
2022-11-16T13:03:30.468Z,100329.72
2022-11-16T13:06:03.286Z,100331.53
2022-11-16T13:08:42.495Z,100330.56
2022-11-16T13:11:15.939Z,100329.72
2022-11-16T13:13:51.490Z,100333.34
2022-11-16T13:16:21.389Z,100328.75
2022-11-16T13:18:49.535Z,100326.06
2022-11-16T13:21:24.726Z,100334.22
2022-11-16T13:24:03.083Z,100332.66
2022-11-16T13:26:37.024Z,100338.41
2022-11-16T13:29:14.142Z,100333.38
2022-11-16T13:31:48.639Z,100340.84
2022-11-16T13:34:21.540Z,100341.19
2022-11-16T13:36:49.875Z,100339.66
2022-11-16T13:39:22.544Z,100327.38
2022-11-16T13:42:06.091Z,100337.41
2022-11-16T13:44:34.717Z,100335.84
2022-11-16T13:47:05.245Z,100333.34
2022-11-16T13:49:36.548Z,100332.59
2022-11-16T13:52:22.667Z,100337.97
2022-11-16T13:54:54.379Z,100328.28
2022-11-16T13:57:27.296Z,100335.59
2022-11-16T14:00:10.698Z,100326.97
2022-11-16T14:02:40.048Z,100328.03
2022-11-16T14:05:17.486Z,100319.22
2022-11-16T14:07:49.623Z,100326.44
2022-11-16T14:10:56.871Z,100313.22
2022-11-16T14:13:44.251Z,100314.09
2022-11-16T14:16:55.056Z,100307.94
2022-11-16T14:19:54.882Z,100313.31
2022-11-16T14:22:45.717Z,100314.19
2022-11-16T14:25:27.430Z,100314.25
2022-11-16T14:28:01.559Z,100316.09
2022-11-16T14:30:36.383Z,100317.03
2022-11-16T14:33:04.699Z,100320.50
2022-11-16T14:35:36.555Z,100316.00
2022-11-16T14:38:07.364Z,100332.00
2022-11-16T14:40:42.861Z,100325.75
2022-11-16T14:43:17.933Z,100321.34
2022-11-16T14:45:53.153Z,100329.50
2022-11-16T14:48:23.361Z,100325.09
2022-11-16T14:51:05.360Z,100323.34
2022-11-16T14:53:34.683Z,100322.41
2022-11-16T14:56:11.870Z,100330.44
2022-11-16T14:58:40.544Z,100328.81
2022-11-16T15:01:15.712Z,100318.94
2022-11-16T15:03:56.423Z,100319.09
2022-11-16T15:06:26.466Z,100319.19
2022-11-16T15:08:58.058Z,100315.81
2022-11-16T15:11:48.582Z,100320.41
2022-11-16T15:14:20.799Z,100318.69
2022-11-16T15:16:55.554Z,100322.47
2022-11-16T15:19:24.029Z,100320.84
2022-11-16T15:21:53.923Z,100319.19
2022-11-16T15:24:31.432Z,100318.41
2022-11-16T15:27:10.809Z,100320.16
2022-11-16T15:29:42.243Z,100325.69
2022-11-16T15:32:17.181Z,100323.00
2022-11-16T15:34:49.068Z,100325.84
2022-11-16T15:37:27.957Z,100323.16
2022-11-16T15:39:56.906Z,100315.13
2022-11-16T15:42:26.784Z,100331.19
2022-11-16T15:44:55.484Z,100328.47
2022-11-16T15:47:25.492Z,100332.09
2022-11-16T15:49:53.948Z,100332.94
2022-11-16T15:52:50.136Z,100333.97
2022-11-16T15:55:23.867Z,100331.19
2022-11-16T15:58:00.846Z,100331.28
2022-11-16T16:00:30.011Z,100326.09
2022-11-16T16:03:04.077Z,100329.66
2022-11-16T16:05:37.118Z,100332.50
2022-11-16T16:08:06.193Z,100324.56
2022-11-16T16:10:34.559Z,100327.22
2022-11-16T16:13:04.010Z,100329.13
2022-11-16T16:15:36.155Z,100326.44
2022-11-16T16:18:34.456Z,100326.44
2022-11-16T16:21:03.901Z,100320.28
2022-11-16T16:23:32.394Z,100325.72
2022-11-16T16:26:04.846Z,100315.97
2022-11-16T16:28:32.969Z,100326.69
2022-11-16T16:31:01.114Z,100320.38
2022-11-16T16:33:31.093Z,100316.84
2022-11-16T16:35:59.214Z,100315.97
2022-11-16T16:38:27.343Z,100316.91
2022-11-16T16:41:00.421Z,100307.16
2022-11-16T16:43:28.765Z,100314.41
2022-11-16T16:45:57.121Z,100329.63
2022-11-16T16:48:25.292Z,100330.50
2022-11-16T16:50:54.763Z,100317.09
2022-11-16T16:53:22.916Z,100328.00
2022-11-16T16:55:51.071Z,100318.13
2022-11-16T16:58:19.207Z,100326.19
2022-11-16T17:00:47.408Z,100336.97
2022-11-16T17:03:15.577Z,100337.94
2022-11-16T17:05:44.605Z,100344.06
2022-11-16T17:08:14.131Z,100341.28
2022-11-16T17:10:42.267Z,100333.25
2022-11-16T17:13:10.922Z,100334.91
2022-11-16T17:15:39.240Z,100333.09
2022-11-16T17:18:07.475Z,100329.44
2022-11-16T17:20:35.605Z,100332.03
2022-11-16T17:23:03.753Z,100324.97
2022-11-16T17:25:33.570Z,100324.97
2022-11-16T17:28:01.742Z,100328.50
2022-11-16T17:30:30.093Z,100328.41
2022-11-16T17:32:58.254Z,100323.16
2022-11-16T17:35:26.378Z,100330.22
2022-11-16T17:37:54.540Z,100331.09
2022-11-16T17:40:22.690Z,100326.59
2022-11-16T17:42:52.185Z,100322.19
2022-11-16T17:45:20.343Z,100324.78
2022-11-16T17:47:48.507Z,100326.53
2022-11-16T17:50:16.789Z,100328.28
2022-11-16T17:52:44.908Z,100327.47
2022-11-16T17:55:13.040Z,100338.25
2022-11-16T17:57:41.181Z,100329.38
2022-11-16T18:00:12.193Z,100335.69
2022-11-16T18:02:40.324Z,100340.00
2022-11-16T18:05:09.103Z,100344.41
2022-11-16T18:07:38.470Z,100339.03
2022-11-16T18:10:07.937Z,100344.34
2022-11-16T18:12:36.036Z,100357.81
2022-11-16T18:15:27.431Z,100356.88
2022-11-16T18:17:53.825Z,100361.38
2022-11-16T18:20:22.578Z,100360.47
2022-11-16T18:22:50.731Z,100362.28
2022-11-16T18:25:18.953Z,100364.97
2022-11-16T18:27:50.768Z,100364.97
2022-11-16T18:30:19.079Z,100371.28
2022-11-16T18:32:47.233Z,100369.56
2022-11-16T18:35:17.344Z,100379.41
2022-11-16T18:37:45.456Z,100373.19
2022-11-16T18:40:15.031Z,100378.53
2022-11-16T18:42:43.176Z,100382.09
2022-11-16T18:45:11.653Z,100378.53
2022-11-16T18:47:39.805Z,100391.00
2022-11-16T18:50:18.089Z,100401.72
2022-11-16T18:52:49.752Z,100392.81
2022-11-16T18:55:18.137Z,100386.59
2022-11-16T18:57:46.250Z,100378.72
2022-11-16T19:00:19.428Z,100377.94
2022-11-16T19:02:47.566Z,100369.91
2022-11-16T19:05:15.915Z,100372.66
2022-11-16T19:07:44.067Z,100379.84
2022-11-16T19:10:13.690Z,100384.38
2022-11-16T19:12:41.901Z,100382.66
2022-11-16T19:15:10.567Z,100377.38
2022-11-16T19:17:59.285Z,100383.69
2022-11-16T19:20:27.039Z,100375.75
2022-11-16T19:22:55.178Z,100377.47
2022-11-16T19:25:24.707Z,100375.66
2022-11-16T19:27:52.885Z,100374.72
2022-11-16T19:30:21.109Z,100373.94
2022-11-16T19:32:49.405Z,100365.97
2022-11-16T19:35:17.681Z,100364.09
2022-11-16T19:37:45.770Z,100376.78
2022-11-16T19:40:14.294Z,100375.91
2022-11-16T19:42:43.940Z,100372.47
2022-11-16T19:45:12.936Z,100372.38
2022-11-16T19:47:41.048Z,100379.53
2022-11-16T19:50:11.873Z,100373.41
2022-11-16T19:52:40.053Z,100367.25
2022-11-16T19:55:08.800Z,100361.03
2022-11-16T19:57:36.948Z,100361.09
2022-11-16T20:00:07.659Z,100358.44
2022-11-16T20:02:36.535Z,100355.06
2022-11-16T20:05:04.951Z,100356.88
2022-11-16T20:07:33.147Z,100355.13
2022-11-16T20:10:01.293Z,100357.03
2022-11-16T20:12:29.410Z,100352.72
2022-11-16T20:14:57.550Z,100365.28
2022-11-16T20:17:27.067Z,100359.25
2022-11-16T20:19:55.263Z,100355.88
2022-11-16T20:22:23.439Z,100348.88
2022-11-16T20:24:52.002Z,100353.59
2022-11-16T20:27:20.123Z,100346.69
2022-11-16T20:29:48.236Z,100353.28
2022-11-16T20:32:16.380Z,100346.53
2022-11-16T20:34:45.885Z,100351.16
2022-11-16T20:37:14.213Z,100343.38
2022-11-16T20:39:42.999Z,100344.41
2022-11-16T20:42:11.151Z,100341.16
2022-11-16T20:44:39.257Z,100330.84
2022-11-16T20:47:07.402Z,100340.84
2022-11-16T20:49:35.586Z,100336.66
2022-11-16T20:52:05.357Z,100351.13
2022-11-16T20:54:33.709Z,100341.44
2022-11-16T20:57:01.841Z,100350.47
2022-11-16T20:59:29.997Z,100345.19
2022-11-16T21:01:58.121Z,100341.81
2022-11-16T21:04:26.275Z,100350.88
2022-11-16T21:06:54.489Z,100353.69
2022-11-16T21:09:26.552Z,100338.72
2022-11-16T21:12:12.591Z,100347.69
2022-11-16T21:14:40.711Z,100345.19
2022-11-16T21:17:08.857Z,100345.25
2022-11-16T21:19:36.990Z,100338.19
2022-11-16T21:22:05.117Z,100328.47
2022-11-16T21:24:34.811Z,100325.97
2022-11-16T21:27:02.932Z,100314.50
2022-11-16T21:29:31.062Z,100316.53
2022-11-16T21:31:59.381Z,100322.94
2022-11-16T21:34:28.664Z,100316.03
2022-11-16T21:36:56.816Z,100314.31
2022-11-16T21:39:25.227Z,100316.28
2022-11-16T21:41:54.855Z,100327.94
2022-11-16T21:44:22.979Z,100321.91
2022-11-16T21:46:51.219Z,100320.94
2022-11-16T21:49:19.338Z,100321.97
2022-11-16T21:51:47.468Z,100317.50
2022-11-16T21:54:15.617Z,100320.16
2022-11-16T21:56:43.743Z,100323.69
2022-11-16T21:59:13.250Z,100321.97
2022-11-16T22:01:55.286Z,100318.44
2022-11-16T22:04:40.697Z,100322.91
2022-11-16T22:07:31.909Z,100326.44
2022-11-16T22:10:00.169Z,100320.16
2022-11-16T22:12:28.367Z,100319.31
2022-11-16T22:14:58.427Z,100313.00
2022-11-16T22:17:26.676Z,100298.78
2022-11-16T22:19:54.847Z,100307.59
2022-11-16T22:22:23.189Z,100303.91
2022-11-16T22:24:51.568Z,100285.16
2022-11-16T22:27:20.121Z,100285.00
2022-11-16T22:29:48.215Z,100270.69
2022-11-16T22:32:17.718Z,100288.53
2022-11-16T22:34:45.833Z,100287.59
2022-11-16T22:37:13.940Z,100287.59
2022-11-16T22:39:42.117Z,100285.06
2022-11-16T22:42:11.402Z,100285.94
2022-11-16T22:44:39.548Z,100278.00
2022-11-16T22:47:07.686Z,100281.59
2022-11-16T22:49:37.206Z,100286.94
2022-11-16T22:52:05.543Z,100282.53
2022-11-16T22:54:34.643Z,100277.34
2022-11-16T22:57:03.294Z,100269.47
2022-11-16T22:59:31.421Z,100255.50
2022-11-16T23:02:00.973Z,100266.31
2022-11-16T23:04:29.064Z,100263.00
2022-11-16T23:06:58.825Z,100276.50
2022-11-16T23:09:26.965Z,100273.19
2022-11-16T23:12:12.759Z,100276.94
2022-11-16T23:14:58.187Z,100275.28
2022-11-16T23:17:26.306Z,100266.53
2022-11-16T23:20:17.296Z,100264.88
2022-11-16T23:23:04.572Z,100264.09
2022-11-16T23:25:50.636Z,100265.13
2022-11-16T23:28:20.180Z,100258.91
2022-11-16T23:30:48.558Z,100252.91
2022-11-16T23:33:16.708Z,100249.44
2022-11-16T23:35:44.870Z,100259.25
2022-11-16T23:38:14.364Z,100264.69
2022-11-16T23:40:42.504Z,100251.41
2022-11-16T23:43:28.888Z,100251.41
2022-11-16T23:45:57.148Z,100249.59
2022-11-16T23:48:25.260Z,100256.66
2022-11-16T23:50:53.412Z,100250.31
2022-11-16T23:53:22.894Z,100244.03
2022-11-16T23:55:51.093Z,100244.03
2022-11-16T23:58:19.219Z,100243.16
